sensor_id;sensor_type;location;lat;lon;timestamp;P1;durP1;ratioP1;P2;durP2;ratioP2
9789;SDS011;4934;50.852;8.098;2022-11-28T00:00:26;20.27;;;10.85;;
9789;SDS011;4934;50.852;8.098;2022-11-28T00:02:52;22.95;;;10.55;;
9789;SDS011;4934;50.852;8.098;2022-11-28T00:05:18;21.98;;;11.18;;
9789;SDS011;4934;50.852;8.098;2022-11-28T00:07:44;22.83;;;10.32;;
9789;SDS011;4934;50.852;8.098;2022-11-28T00:10:09;23.35;;;11.23;;
9789;SDS011;4934;50.852;8.098;2022-11-28T00:12:36;25.25;;;12.35;;
9789;SDS011;4934;50.852;8.098;2022-11-28T00:15:02;23.65;;;10.80;;
9789;SDS011;4934;50.852;8.098;2022-11-28T00:17:29;23.98;;;10.50;;
9789;SDS011;4934;50.852;8.098;2022-11-28T00:19:55;23.77;;;10.88;;
9789;SDS011;4934;50.852;8.098;2022-11-28T00:22:20;22.40;;;10.43;;
9789;SDS011;4934;50.852;8.098;2022-11-28T00:24:46;22.45;;;12.15;;
9789;SDS011;4934;50.852;8.098;2022-11-28T00:27:12;25.35;;;11.18;;
9789;SDS011;4934;50.852;8.098;2022-11-28T00:29:38;19.73;;;9.98;;
9789;SDS011;4934;50.852;8.098;2022-11-28T00:32:03;20.23;;;9.82;;
9789;SDS011;4934;50.852;8.098;2022-11-28T00:34:29;26.75;;;10.90;;
9789;SDS011;4934;50.852;8.098;2022-11-28T00:36:55;21.05;;;10.48;;
9789;SDS011;4934;50.852;8.098;2022-11-28T00:39:21;21.30;;;10.77;;
9789;SDS011;4934;50.852;8.098;2022-11-28T00:41:46;24.58;;;11.38;;
9789;SDS011;4934;50.852;8.098;2022-11-28T00:44:12;21.40;;;10.73;;
9789;SDS011;4934;50.852;8.098;2022-11-28T00:46:38;21.20;;;10.20;;
9789;SDS011;4934;50.852;8.098;2022-11-28T00:49:03;23.38;;;11.07;;
9789;SDS011;4934;50.852;8.098;2022-11-28T00:51:30;20.85;;;10.90;;
9789;SDS011;4934;50.852;8.098;2022-11-28T00:53:59;24.35;;;10.48;;
9789;SDS011;4934;50.852;8.098;2022-11-28T00:56:29;21.30;;;10.73;;
9789;SDS011;4934;50.852;8.098;2022-11-28T00:58:57;26.90;;;11.38;;
9789;SDS011;4934;50.852;8.098;2022-11-28T01:01:24;27.92;;;11.65;;
9789;SDS011;4934;50.852;8.098;2022-11-28T01:03:52;24.42;;;12.68;;
9789;SDS011;4934;50.852;8.098;2022-11-28T01:06:25;23.98;;;11.75;;
9789;SDS011;4934;50.852;8.098;2022-11-28T01:09:17;25.55;;;11.15;;
9789;SDS011;4934;50.852;8.098;2022-11-28T01:11:45;26.33;;;11.32;;
9789;SDS011;4934;50.852;8.098;2022-11-28T01:14:13;26.95;;;12.55;;
9789;SDS011;4934;50.852;8.098;2022-11-28T01:16:39;26.80;;;11.95;;
9789;SDS011;4934;50.852;8.098;2022-11-28T01:19:05;26.17;;;11.38;;
9789;SDS011;4934;50.852;8.098;2022-11-28T01:21:31;26.02;;;11.68;;
9789;SDS011;4934;50.852;8.098;2022-11-28T01:23:57;24.27;;;11.50;;
9789;SDS011;4934;50.852;8.098;2022-11-28T01:26:23;22.48;;;11.77;;
9789;SDS011;4934;50.852;8.098;2022-11-28T01:28:51;28.15;;;12.73;;
9789;SDS011;4934;50.852;8.098;2022-11-28T01:31:18;30.42;;;13.18;;
9789;SDS011;4934;50.852;8.098;2022-11-28T01:33:45;25.50;;;11.57;;
9789;SDS011;4934;50.852;8.098;2022-11-28T01:36:11;23.92;;;10.82;;
9789;SDS011;4934;50.852;8.098;2022-11-28T01:38:38;29.60;;;12.23;;
9789;SDS011;4934;50.852;8.098;2022-11-28T01:41:04;27.42;;;12.27;;
9789;SDS011;4934;50.852;8.098;2022-11-28T01:43:30;26.75;;;11.77;;
9789;SDS011;4934;50.852;8.098;2022-11-28T01:45:56;23.33;;;11.35;;
9789;SDS011;4934;50.852;8.098;2022-11-28T01:48:22;25.15;;;11.75;;
9789;SDS011;4934;50.852;8.098;2022-11-28T01:50:55;27.67;;;11.95;;
9789;SDS011;4934;50.852;8.098;2022-11-28T01:53:27;24.58;;;11.02;;
9789;SDS011;4934;50.852;8.098;2022-11-28T01:56:16;28.58;;;12.70;;
9789;SDS011;4934;50.852;8.098;2022-11-28T01:58:43;25.02;;;11.02;;
9789;SDS011;4934;50.852;8.098;2022-11-28T02:01:13;26.77;;;11.60;;
9789;SDS011;4934;50.852;8.098;2022-11-28T02:03:44;23.67;;;11.18;;
9789;SDS011;4934;50.852;8.098;2022-11-28T02:06:12;26.98;;;12.80;;
9789;SDS011;4934;50.852;8.098;2022-11-28T02:08:40;21.63;;;10.70;;
9789;SDS011;4934;50.852;8.098;2022-11-28T02:16:45;26.80;;;11.70;;
9789;SDS011;4934;50.852;8.098;2022-11-28T02:19:51;23.80;;;11.70;;
9789;SDS011;4934;50.852;8.098;2022-11-28T02:22:49;24.00;;;11.27;;
9789;SDS011;4934;50.852;8.098;2022-11-28T02:25:41;24.05;;;11.38;;
9789;SDS011;4934;50.852;8.098;2022-11-28T02:33:50;26.13;;;11.82;;
9789;SDS011;4934;50.852;8.098;2022-11-28T02:36:38;26.15;;;11.30;;
9789;SDS011;4934;50.852;8.098;2022-11-28T02:44:29;26.83;;;13.27;;
9789;SDS011;4934;50.852;8.098;2022-11-28T02:47:04;25.45;;;11.98;;
9789;SDS011;4934;50.852;8.098;2022-11-28T02:49:37;22.17;;;11.13;;
9789;SDS011;4934;50.852;8.098;2022-11-28T02:52:13;27.88;;;11.00;;
9789;SDS011;4934;50.852;8.098;2022-11-28T02:54:41;25.23;;;11.52;;
9789;SDS011;4934;50.852;8.098;2022-11-28T02:57:08;24.77;;;11.07;;
9789;SDS011;4934;50.852;8.098;2022-11-28T03:02:03;23.05;;;10.07;;
9789;SDS011;4934;50.852;8.098;2022-11-28T03:04:48;21.65;;;10.65;;
9789;SDS011;4934;50.852;8.098;2022-11-28T03:10:32;24.85;;;10.95;;
9789;SDS011;4934;50.852;8.098;2022-11-28T03:13:21;19.85;;;10.48;;
9789;SDS011;4934;50.852;8.098;2022-11-28T03:21:38;29.23;;;12.20;;
9789;SDS011;4934;50.852;8.098;2022-11-28T03:24:27;27.95;;;12.05;;
9789;SDS011;4934;50.852;8.098;2022-11-28T03:29:38;27.35;;;12.60;;
9789;SDS011;4934;50.852;8.098;2022-11-28T03:32:10;22.88;;;10.25;;
9789;SDS011;4934;50.852;8.098;2022-11-28T03:34:41;27.45;;;11.30;;
9789;SDS011;4934;50.852;8.098;2022-11-28T03:37:10;26.80;;;12.38;;
9789;SDS011;4934;50.852;8.098;2022-11-28T03:39:53;28.48;;;12.57;;
9789;SDS011;4934;50.852;8.098;2022-11-28T03:42:23;27.63;;;12.88;;
9789;SDS011;4934;50.852;8.098;2022-11-28T03:44:53;26.58;;;11.45;;
9789;SDS011;4934;50.852;8.098;2022-11-28T03:47:29;22.60;;;11.27;;
9789;SDS011;4934;50.852;8.098;2022-11-28T03:50:00;26.20;;;12.85;;
9789;SDS011;4934;50.852;8.098;2022-11-28T03:52:39;26.50;;;11.50;;
9789;SDS011;4934;50.852;8.098;2022-11-28T03:55:15;28.48;;;12.38;;
9789;SDS011;4934;50.852;8.098;2022-11-28T04:00:18;26.80;;;12.20;;
9789;SDS011;4934;50.852;8.098;2022-11-28T04:02:51;25.60;;;12.68;;
9789;SDS011;4934;50.852;8.098;2022-11-28T04:08:16;33.40;;;14.05;;
9789;SDS011;4934;50.852;8.098;2022-11-28T04:13:44;26.40;;;11.85;;
9789;SDS011;4934;50.852;8.098;2022-11-28T04:16:22;24.70;;;11.30;;
9789;SDS011;4934;50.852;8.098;2022-11-28T04:21:32;26.45;;;12.70;;
9789;SDS011;4934;50.852;8.098;2022-11-28T04:24:07;28.10;;;12.25;;
9789;SDS011;4934;50.852;8.098;2022-11-28T04:26:53;28.85;;;12.50;;
9789;SDS011;4934;50.852;8.098;2022-11-28T04:29:24;30.67;;;12.88;;
9789;SDS011;4934;50.852;8.098;2022-11-28T04:31:53;28.63;;;13.10;;
9789;SDS011;4934;50.852;8.098;2022-11-28T04:34:22;26.65;;;13.13;;
9789;SDS011;4934;50.852;8.098;2022-11-28T04:36:51;29.70;;;12.47;;
9789;SDS011;4934;50.852;8.098;2022-11-28T04:39:18;25.05;;;11.90;;
9789;SDS011;4934;50.852;8.098;2022-11-28T04:41:48;27.58;;;12.65;;
9789;SDS011;4934;50.852;8.098;2022-11-28T04:46:47;25.63;;;12.35;;
9789;SDS011;4934;50.852;8.098;2022-11-28T04:49:18;28.88;;;12.82;;
9789;SDS011;4934;50.852;8.098;2022-11-28T04:57:27;30.27;;;11.73;;
9789;SDS011;4934;50.852;8.098;2022-11-28T04:59:56;27.15;;;12.43;;
9789;SDS011;4934;50.852;8.098;2022-11-28T05:02:25;28.23;;;12.27;;
9789;SDS011;4934;50.852;8.098;2022-11-28T05:04:52;29.65;;;12.30;;
9789;SDS011;4934;50.852;8.098;2022-11-28T05:07:19;27.13;;;12.20;;
9789;SDS011;4934;50.852;8.098;2022-11-28T05:09:46;30.38;;;13.00;;
9789;SDS011;4934;50.852;8.098;2022-11-28T05:12:12;27.48;;;12.30;;
9789;SDS011;4934;50.852;8.098;2022-11-28T05:14:37;24.00;;;11.65;;
9789;SDS011;4934;50.852;8.098;2022-11-28T05:17:04;31.35;;;12.35;;
9789;SDS011;4934;50.852;8.098;2022-11-28T05:19:30;25.13;;;12.68;;
9789;SDS011;4934;50.852;8.098;2022-11-28T05:21:56;29.17;;;12.57;;
9789;SDS011;4934;50.852;8.098;2022-11-28T05:24:21;24.48;;;11.02;;
9789;SDS011;4934;50.852;8.098;2022-11-28T05:26:47;29.90;;;13.02;;
9789;SDS011;4934;50.852;8.098;2022-11-28T05:29:13;24.52;;;11.90;;
9789;SDS011;4934;50.852;8.098;2022-11-28T05:31:38;28.08;;;12.18;;
9789;SDS011;4934;50.852;8.098;2022-11-28T05:34:04;23.27;;;12.23;;
9789;SDS011;4934;50.852;8.098;2022-11-28T05:36:29;30.73;;;12.85;;
9789;SDS011;4934;50.852;8.098;2022-11-28T05:38:55;29.10;;;12.85;;
9789;SDS011;4934;50.852;8.098;2022-11-28T05:41:30;24.85;;;12.00;;
9789;SDS011;4934;50.852;8.098;2022-11-28T05:43:57;26.90;;;11.55;;
9789;SDS011;4934;50.852;8.098;2022-11-28T05:46:23;28.63;;;11.98;;
9789;SDS011;4934;50.852;8.098;2022-11-28T05:48:50;27.77;;;12.20;;
9789;SDS011;4934;50.852;8.098;2022-11-28T05:51:15;24.05;;;11.73;;
9789;SDS011;4934;50.852;8.098;2022-11-28T05:53:41;26.05;;;11.95;;
9789;SDS011;4934;50.852;8.098;2022-11-28T05:56:08;26.88;;;13.07;;
9789;SDS011;4934;50.852;8.098;2022-11-28T05:58:34;30.23;;;12.95;;
9789;SDS011;4934;50.852;8.098;2022-11-28T06:01:34;26.48;;;12.00;;
9789;SDS011;4934;50.852;8.098;2022-11-28T06:03:53;21.15;;;11.32;;
9789;SDS011;4934;50.852;8.098;2022-11-28T06:06:25;31.58;;;12.27;;
9789;SDS011;4934;50.852;8.098;2022-11-28T06:08:52;30.57;;;13.57;;
9789;SDS011;4934;50.852;8.098;2022-11-28T06:11:21;32.38;;;12.63;;
9789;SDS011;4934;50.852;8.098;2022-11-28T06:13:48;24.60;;;12.35;;
9789;SDS011;4934;50.852;8.098;2022-11-28T06:16:18;27.88;;;11.75;;
9789;SDS011;4934;50.852;8.098;2022-11-28T06:18:46;26.35;;;11.80;;
9789;SDS011;4934;50.852;8.098;2022-11-28T06:21:13;27.77;;;11.60;;
9789;SDS011;4934;50.852;8.098;2022-11-28T06:23:40;27.58;;;12.63;;
9789;SDS011;4934;50.852;8.098;2022-11-28T06:26:07;28.35;;;13.02;;
9789;SDS011;4934;50.852;8.098;2022-11-28T06:28:38;20.60;;;10.65;;
9789;SDS011;4934;50.852;8.098;2022-11-28T06:31:08;23.08;;;11.68;;
9789;SDS011;4934;50.852;8.098;2022-11-28T06:33:39;31.33;;;13.15;;
9789;SDS011;4934;50.852;8.098;2022-11-28T06:36:05;25.60;;;12.27;;
9789;SDS011;4934;50.852;8.098;2022-11-28T06:38:32;24.40;;;12.10;;
9789;SDS011;4934;50.852;8.098;2022-11-28T06:40:59;29.08;;;13.57;;
9789;SDS011;4934;50.852;8.098;2022-11-28T06:43:26;27.63;;;12.52;;
9789;SDS011;4934;50.852;8.098;2022-11-28T06:45:53;29.92;;;12.32;;
9789;SDS011;4934;50.852;8.098;2022-11-28T06:48:19;26.02;;;13.13;;
9789;SDS011;4934;50.852;8.098;2022-11-28T06:50:44;33.10;;;13.45;;
9789;SDS011;4934;50.852;8.098;2022-11-28T06:53:10;27.98;;;13.75;;
9789;SDS011;4934;50.852;8.098;2022-11-28T06:55:36;25.38;;;12.65;;
9789;SDS011;4934;50.852;8.098;2022-11-28T06:58:01;30.58;;;12.98;;
9789;SDS011;4934;50.852;8.098;2022-11-28T07:00:27;28.83;;;13.93;;
9789;SDS011;4934;50.852;8.098;2022-11-28T07:02:53;29.85;;;12.95;;
9789;SDS011;4934;50.852;8.098;2022-11-28T07:05:19;28.02;;;12.77;;
9789;SDS011;4934;50.852;8.098;2022-11-28T07:07:46;30.35;;;12.85;;
9789;SDS011;4934;50.852;8.098;2022-11-28T07:10:12;32.60;;;13.75;;
9789;SDS011;4934;50.852;8.098;2022-11-28T07:12:38;27.58;;;12.45;;
9789;SDS011;4934;50.852;8.098;2022-11-28T07:15:08;30.67;;;12.25;;
9789;SDS011;4934;50.852;8.098;2022-11-28T07:17:34;31.17;;;14.00;;
9789;SDS011;4934;50.852;8.098;2022-11-28T07:20:03;29.50;;;14.00;;
9789;SDS011;4934;50.852;8.098;2022-11-28T07:22:31;31.98;;;15.80;;
9789;SDS011;4934;50.852;8.098;2022-11-28T07:24:56;36.55;;;16.42;;
9789;SDS011;4934;50.852;8.098;2022-11-28T07:27:22;30.48;;;13.77;;
9789;SDS011;4934;50.852;8.098;2022-11-28T07:29:47;31.35;;;14.77;;
9789;SDS011;4934;50.852;8.098;2022-11-28T07:32:13;33.75;;;15.55;;
9789;SDS011;4934;50.852;8.098;2022-11-28T07:34:39;39.88;;;17.38;;
9789;SDS011;4934;50.852;8.098;2022-11-28T07:37:07;32.47;;;16.35;;
9789;SDS011;4934;50.852;8.098;2022-11-28T07:39:33;30.45;;;13.70;;
9789;SDS011;4934;50.852;8.098;2022-11-28T07:41:59;32.40;;;13.18;;
9789;SDS011;4934;50.852;8.098;2022-11-28T07:44:24;32.72;;;13.82;;
9789;SDS011;4934;50.852;8.098;2022-11-28T07:46:50;33.30;;;15.15;;
9789;SDS011;4934;50.852;8.098;2022-11-28T07:49:16;28.67;;;13.20;;
9789;SDS011;4934;50.852;8.098;2022-11-28T07:51:42;29.92;;;13.15;;
9789;SDS011;4934;50.852;8.098;2022-11-28T07:54:15;32.95;;;13.73;;
9789;SDS011;4934;50.852;8.098;2022-11-28T07:56:41;28.10;;;13.80;;
9789;SDS011;4934;50.852;8.098;2022-11-28T07:59:07;33.47;;;14.20;;
9789;SDS011;4934;50.852;8.098;2022-11-28T08:04:19;31.98;;;14.18;;
9789;SDS011;4934;50.852;8.098;2022-11-28T08:06:46;27.20;;;13.63;;
9789;SDS011;4934;50.852;8.098;2022-11-28T08:09:13;33.67;;;15.55;;
9789;SDS011;4934;50.852;8.098;2022-11-28T08:11:41;32.78;;;14.68;;
9789;SDS011;4934;50.852;8.098;2022-11-28T08:14:18;27.58;;;13.70;;
9789;SDS011;4934;50.852;8.098;2022-11-28T08:16:44;27.10;;;13.13;;
9789;SDS011;4934;50.852;8.098;2022-11-28T08:19:13;33.45;;;14.77;;
9789;SDS011;4934;50.852;8.098;2022-11-28T08:21:39;30.20;;;13.73;;
9789;SDS011;4934;50.852;8.098;2022-11-28T08:24:04;31.13;;;13.35;;
9789;SDS011;4934;50.852;8.098;2022-11-28T08:26:32;30.77;;;12.95;;
9789;SDS011;4934;50.852;8.098;2022-11-28T08:28:59;31.92;;;13.23;;
9789;SDS011;4934;50.852;8.098;2022-11-28T08:31:27;30.88;;;13.40;;
9789;SDS011;4934;50.852;8.098;2022-11-28T08:34:04;28.42;;;12.90;;
9789;SDS011;4934;50.852;8.098;2022-11-28T08:36:31;30.17;;;13.80;;
9789;SDS011;4934;50.852;8.098;2022-11-28T08:39:00;29.85;;;13.13;;
9789;SDS011;4934;50.852;8.098;2022-11-28T08:41:31;32.33;;;13.13;;
9789;SDS011;4934;50.852;8.098;2022-11-28T08:43:57;36.30;;;14.90;;
9789;SDS011;4934;50.852;8.098;2022-11-28T08:46:22;30.95;;;13.75;;
9789;SDS011;4934;50.852;8.098;2022-11-28T08:48:49;33.13;;;13.63;;
9789;SDS011;4934;50.852;8.098;2022-11-28T08:51:16;33.15;;;13.68;;
9789;SDS011;4934;50.852;8.098;2022-11-28T08:53:44;32.72;;;14.20;;
9789;SDS011;4934;50.852;8.098;2022-11-28T08:56:11;32.42;;;13.45;;
9789;SDS011;4934;50.852;8.098;2022-11-28T08:58:43;34.13;;;13.82;;
9789;SDS011;4934;50.852;8.098;2022-11-28T09:01:19;26.83;;;13.20;;
9789;SDS011;4934;50.852;8.098;2022-11-28T09:03:47;28.92;;;13.32;;
9789;SDS011;4934;50.852;8.098;2022-11-28T09:06:14;31.80;;;13.98;;
9789;SDS011;4934;50.852;8.098;2022-11-28T09:08:40;35.70;;;12.82;;
9789;SDS011;4934;50.852;8.098;2022-11-28T09:11:10;27.42;;;13.43;;
9789;SDS011;4934;50.852;8.098;2022-11-28T09:13:38;32.15;;;13.30;;
9789;SDS011;4934;50.852;8.098;2022-11-28T09:16:03;31.80;;;14.02;;
9789;SDS011;4934;50.852;8.098;2022-11-28T09:18:30;28.23;;;11.90;;
9789;SDS011;4934;50.852;8.098;2022-11-28T09:20:56;29.60;;;13.90;;
9789;SDS011;4934;50.852;8.098;2022-11-28T09:23:26;32.80;;;13.35;;
9789;SDS011;4934;50.852;8.098;2022-11-28T09:25:52;28.08;;;12.80;;
9789;SDS011;4934;50.852;8.098;2022-11-28T09:28:18;29.25;;;12.85;;
9789;SDS011;4934;50.852;8.098;2022-11-28T09:30:43;30.50;;;15.40;;
9789;SDS011;4934;50.852;8.098;2022-11-28T09:33:09;29.50;;;15.57;;
9789;SDS011;4934;50.852;8.098;2022-11-28T09:35:38;28.98;;;13.18;;
9789;SDS011;4934;50.852;8.098;2022-11-28T09:38:04;26.85;;;12.70;;
9789;SDS011;4934;50.852;8.098;2022-11-28T09:40:32;27.08;;;12.90;;
9789;SDS011;4934;50.852;8.098;2022-11-28T09:43:01;28.30;;;14.00;;
9789;SDS011;4934;50.852;8.098;2022-11-28T09:45:28;26.40;;;12.05;;
9789;SDS011;4934;50.852;8.098;2022-11-28T09:48:04;27.92;;;12.38;;
9789;SDS011;4934;50.852;8.098;2022-11-28T09:50:59;26.45;;;12.43;;
9789;SDS011;4934;50.852;8.098;2022-11-28T09:53:33;23.55;;;12.18;;
9789;SDS011;4934;50.852;8.098;2022-11-28T09:56:04;31.95;;;12.65;;
9789;SDS011;4934;50.852;8.098;2022-11-28T09:58:40;27.38;;;13.60;;
9789;SDS011;4934;50.852;8.098;2022-11-28T10:03:44;28.80;;;12.23;;
9789;SDS011;4934;50.852;8.098;2022-11-28T10:17:03;25.50;;;12.82;;
9789;SDS011;4934;50.852;8.098;2022-11-28T10:20:03;28.75;;;11.98;;
9789;SDS011;4934;50.852;8.098;2022-11-28T10:22:37;30.67;;;12.85;;
9789;SDS011;4934;50.852;8.098;2022-11-28T10:25:18;27.33;;;11.93;;
9789;SDS011;4934;50.852;8.098;2022-11-28T10:27:50;34.50;;;15.48;;
9789;SDS011;4934;50.852;8.098;2022-11-28T10:30:21;45.22;;;19.58;;
9789;SDS011;4934;50.852;8.098;2022-11-28T10:32:55;34.92;;;16.33;;
9789;SDS011;4934;50.852;8.098;2022-11-28T10:35:38;28.02;;;12.27;;
9789;SDS011;4934;50.852;8.098;2022-11-28T10:38:10;27.95;;;12.48;;
9789;SDS011;4934;50.852;8.098;2022-11-28T11:00:35;27.85;;;12.75;;
9789;SDS011;4934;50.852;8.098;2022-11-28T11:03:02;30.33;;;13.05;;
9789;SDS011;4934;50.852;8.098;2022-11-28T11:05:29;25.75;;;13.13;;
9789;SDS011;4934;50.852;8.098;2022-11-28T11:10:59;26.23;;;12.32;;
9789;SDS011;4934;50.852;8.098;2022-11-28T11:13:30;25.80;;;13.15;;
9789;SDS011;4934;50.852;8.098;2022-11-28T11:15:58;31.80;;;14.23;;
9789;SDS011;4934;50.852;8.098;2022-11-28T11:18:33;28.75;;;12.55;;
9789;SDS011;4934;50.852;8.098;2022-11-28T11:21:05;27.45;;;13.07;;
9789;SDS011;4934;50.852;8.098;2022-11-28T11:23:47;28.52;;;13.27;;
9789;SDS011;4934;50.852;8.098;2022-11-28T11:26:21;27.63;;;13.57;;
9789;SDS011;4934;50.852;8.098;2022-11-28T11:28:49;28.95;;;12.88;;
9789;SDS011;4934;50.852;8.098;2022-11-28T11:31:30;30.60;;;13.25;;
9789;SDS011;4934;50.852;8.098;2022-11-28T11:34:01;30.33;;;14.02;;
9789;SDS011;4934;50.852;8.098;2022-11-28T11:36:46;29.83;;;14.55;;
9789;SDS011;4934;50.852;8.098;2022-11-28T11:46:49;28.58;;;12.43;;
9789;SDS011;4934;50.852;8.098;2022-11-28T11:49:27;31.10;;;14.60;;
9789;SDS011;4934;50.852;8.098;2022-11-28T11:52:12;28.05;;;13.52;;
9789;SDS011;4934;50.852;8.098;2022-11-28T11:57:20;27.73;;;12.80;;
9789;SDS011;4934;50.852;8.098;2022-11-28T12:00:09;27.42;;;12.82;;
9789;SDS011;4934;50.852;8.098;2022-11-28T12:05:25;28.35;;;12.95;;
9789;SDS011;4934;50.852;8.098;2022-11-28T12:10:54;29.20;;;13.05;;
9789;SDS011;4934;50.852;8.098;2022-11-28T12:13:53;29.17;;;13.18;;
9789;SDS011;4934;50.852;8.098;2022-11-28T12:16:43;25.92;;;12.90;;
9789;SDS011;4934;50.852;8.098;2022-11-28T12:19:27;30.85;;;13.68;;
9789;SDS011;4934;50.852;8.098;2022-11-28T12:22:09;31.38;;;13.23;;
9789;SDS011;4934;50.852;8.098;2022-11-28T12:27:37;30.80;;;13.85;;
9789;SDS011;4934;50.852;8.098;2022-11-28T12:35:38;28.40;;;13.35;;
9789;SDS011;4934;50.852;8.098;2022-11-28T12:50:36;31.67;;;13.60;;
9789;SDS011;4934;50.852;8.098;2022-11-28T13:05:14;30.90;;;13.15;;
9789;SDS011;4934;50.852;8.098;2022-11-28T13:16:32;35.78;;;15.68;;
9789;SDS011;4934;50.852;8.098;2022-11-28T13:19:26;33.53;;;14.68;;
9789;SDS011;4934;50.852;8.098;2022-11-28T13:22:15;29.70;;;13.43;;
9789;SDS011;4934;50.852;8.098;2022-11-28T13:30:30;33.47;;;18.00;;
9789;SDS011;4934;50.852;8.098;2022-11-28T13:36:26;29.67;;;14.02;;
9789;SDS011;4934;50.852;8.098;2022-11-28T13:39:25;35.13;;;14.02;;
9789;SDS011;4934;50.852;8.098;2022-11-28T13:44:41;32.10;;;13.83;;
9789;SDS011;4934;50.852;8.098;2022-11-28T13:47:31;29.50;;;12.63;;
9789;SDS011;4934;50.852;8.098;2022-11-28T13:58:59;31.00;;;14.02;;
9789;SDS011;4934;50.852;8.098;2022-11-28T14:01:41;30.95;;;13.95;;
9789;SDS011;4934;50.852;8.098;2022-11-28T14:04:12;34.00;;;16.70;;
9789;SDS011;4934;50.852;8.098;2022-11-28T14:07:04;32.17;;;14.43;;
9789;SDS011;4934;50.852;8.098;2022-11-28T14:24:51;29.20;;;13.68;;
9789;SDS011;4934;50.852;8.098;2022-11-28T14:27:40;28.33;;;12.82;;
9789;SDS011;4934;50.852;8.098;2022-11-28T14:30:42;29.38;;;12.50;;
9789;SDS011;4934;50.852;8.098;2022-11-28T14:33:45;25.08;;;11.10;;
9789;SDS011;4934;50.852;8.098;2022-11-28T14:47:28;28.08;;;12.25;;
9789;SDS011;4934;50.852;8.098;2022-11-28T14:55:21;27.45;;;13.27;;
9789;SDS011;4934;50.852;8.098;2022-11-28T14:57:51;29.20;;;13.30;;
9789;SDS011;4934;50.852;8.098;2022-11-28T15:00:36;27.63;;;13.70;;
9789;SDS011;4934;50.852;8.098;2022-11-28T15:03:24;26.55;;;12.07;;
9789;SDS011;4934;50.852;8.098;2022-11-28T15:06:12;41.13;;;18.63;;
9789;SDS011;4934;50.852;8.098;2022-11-28T15:15:58;26.42;;;12.57;;
9789;SDS011;4934;50.852;8.098;2022-11-28T15:18:28;29.13;;;14.05;;
9789;SDS011;4934;50.852;8.098;2022-11-28T15:21:05;24.63;;;12.80;;
9789;SDS011;4934;50.852;8.098;2022-11-28T15:27:38;27.33;;;12.38;;
9789;SDS011;4934;50.852;8.098;2022-11-28T15:30:19;25.77;;;13.05;;
9789;SDS011;4934;50.852;8.098;2022-11-28T15:32:57;22.73;;;12.65;;
9789;SDS011;4934;50.852;8.098;2022-11-28T15:35:33;27.38;;;12.40;;
9789;SDS011;4934;50.852;8.098;2022-11-28T15:38:01;27.35;;;12.85;;
9789;SDS011;4934;50.852;8.098;2022-11-28T15:40:30;26.33;;;12.45;;
9789;SDS011;4934;50.852;8.098;2022-11-28T15:43:44;29.70;;;13.63;;
9789;SDS011;4934;50.852;8.098;2022-11-28T15:46:32;30.95;;;16.13;;
9789;SDS011;4934;50.852;8.098;2022-11-28T15:49:04;29.13;;;13.65;;
9789;SDS011;4934;50.852;8.098;2022-11-28T15:51:32;24.73;;;11.68;;
9789;SDS011;4934;50.852;8.098;2022-11-28T15:54:16;26.42;;;13.02;;
9789;SDS011;4934;50.852;8.098;2022-11-28T15:56:57;33.33;;;13.23;;
9789;SDS011;4934;50.852;8.098;2022-11-28T15:59:23;26.92;;;13.27;;
9789;SDS011;4934;50.852;8.098;2022-11-28T16:01:51;27.52;;;13.13;;
9789;SDS011;4934;50.852;8.098;2022-11-28T16:04:20;25.15;;;12.40;;
9789;SDS011;4934;50.852;8.098;2022-11-28T16:06:49;23.85;;;12.30;;
9789;SDS011;4934;50.852;8.098;2022-11-28T16:11:43;24.52;;;11.93;;
9789;SDS011;4934;50.852;8.098;2022-11-28T16:14:20;29.23;;;12.88;;
9789;SDS011;4934;50.852;8.098;2022-11-28T16:16:52;25.10;;;11.60;;
9789;SDS011;4934;50.852;8.098;2022-11-28T16:21:57;28.55;;;13.52;;
9789;SDS011;4934;50.852;8.098;2022-11-28T16:24:29;25.75;;;11.07;;
9789;SDS011;4934;50.852;8.098;2022-11-28T16:27:33;21.13;;;10.65;;
9789;SDS011;4934;50.852;8.098;2022-11-28T16:30:02;22.50;;;11.30;;
9789;SDS011;4934;50.852;8.098;2022-11-28T16:32:49;28.30;;;11.98;;
9789;SDS011;4934;50.852;8.098;2022-11-28T16:35:27;22.10;;;11.38;;
9789;SDS011;4934;50.852;8.098;2022-11-28T16:40:39;19.88;;;10.82;;
9789;SDS011;4934;50.852;8.098;2022-11-28T16:43:15;20.17;;;10.40;;
9789;SDS011;4934;50.852;8.098;2022-11-28T16:45:57;19.88;;;10.00;;
9789;SDS011;4934;50.852;8.098;2022-11-28T16:48:24;20.95;;;10.45;;
9789;SDS011;4934;50.852;8.098;2022-11-28T17:01:45;17.90;;;9.23;;
9789;SDS011;4934;50.852;8.098;2022-11-28T17:04:19;22.73;;;9.97;;
9789;SDS011;4934;50.852;8.098;2022-11-28T17:06:50;16.25;;;9.15;;
9789;SDS011;4934;50.852;8.098;2022-11-28T17:09:17;18.08;;;8.85;;
9789;SDS011;4934;50.852;8.098;2022-11-28T17:11:44;17.88;;;8.32;;
9789;SDS011;4934;50.852;8.098;2022-11-28T17:14:15;17.48;;;9.10;;
9789;SDS011;4934;50.852;8.098;2022-11-28T17:19:54;19.13;;;8.90;;
9789;SDS011;4934;50.852;8.098;2022-11-28T17:22:31;16.13;;;8.45;;
9789;SDS011;4934;50.852;8.098;2022-11-28T17:25:01;19.05;;;9.68;;
9789;SDS011;4934;50.852;8.098;2022-11-28T17:27:27;18.92;;;8.57;;
9789;SDS011;4934;50.852;8.098;2022-11-28T17:32:29;24.50;;;12.02;;
9789;SDS011;4934;50.852;8.098;2022-11-28T17:34:59;20.25;;;9.95;;
9789;SDS011;4934;50.852;8.098;2022-11-28T17:37:27;21.73;;;10.60;;
9789;SDS011;4934;50.852;8.098;2022-11-28T17:39:54;21.70;;;10.60;;
9789;SDS011;4934;50.852;8.098;2022-11-28T17:42:39;22.38;;;10.50;;
9789;SDS011;4934;50.852;8.098;2022-11-28T17:45:10;20.33;;;10.45;;
9789;SDS011;4934;50.852;8.098;2022-11-28T17:47:39;18.52;;;9.57;;
9789;SDS011;4934;50.852;8.098;2022-11-28T17:50:05;16.50;;;9.05;;
9789;SDS011;4934;50.852;8.098;2022-11-28T17:52:31;20.65;;;10.45;;
9789;SDS011;4934;50.852;8.098;2022-11-28T17:54:57;19.75;;;10.63;;
9789;SDS011;4934;50.852;8.098;2022-11-28T17:57:28;18.98;;;9.52;;
9789;SDS011;4934;50.852;8.098;2022-11-28T17:59:54;20.83;;;10.35;;
9789;SDS011;4934;50.852;8.098;2022-11-28T18:02:20;20.63;;;10.90;;
9789;SDS011;4934;50.852;8.098;2022-11-28T18:04:45;18.88;;;9.68;;
9789;SDS011;4934;50.852;8.098;2022-11-28T18:07:11;18.95;;;9.60;;
9789;SDS011;4934;50.852;8.098;2022-11-28T18:12:25;20.00;;;9.32;;
9789;SDS011;4934;50.852;8.098;2022-11-28T18:14:54;21.20;;;9.70;;
9789;SDS011;4934;50.852;8.098;2022-11-28T18:17:20;23.13;;;10.13;;
9789;SDS011;4934;50.852;8.098;2022-11-28T18:19:45;21.58;;;9.80;;
9789;SDS011;4934;50.852;8.098;2022-11-28T18:22:11;20.10;;;10.30;;
9789;SDS011;4934;50.852;8.098;2022-11-28T18:24:37;18.08;;;9.50;;
9789;SDS011;4934;50.852;8.098;2022-11-28T18:27:02;19.73;;;9.57;;
9789;SDS011;4934;50.852;8.098;2022-11-28T18:29:28;19.77;;;9.90;;
9789;SDS011;4934;50.852;8.098;2022-11-28T18:31:53;19.25;;;9.05;;
9789;SDS011;4934;50.852;8.098;2022-11-28T18:34:21;15.10;;;8.32;;
9789;SDS011;4934;50.852;8.098;2022-11-28T18:36:47;18.42;;;9.15;;
9789;SDS011;4934;50.852;8.098;2022-11-28T18:39:13;16.80;;;9.23;;
9789;SDS011;4934;50.852;8.098;2022-11-28T18:41:39;17.77;;;9.27;;
9789;SDS011;4934;50.852;8.098;2022-11-28T18:44:15;17.73;;;9.00;;
9789;SDS011;4934;50.852;8.098;2022-11-28T18:46:42;21.05;;;9.23;;
9789;SDS011;4934;50.852;8.098;2022-11-28T18:49:10;16.75;;;8.48;;
9789;SDS011;4934;50.852;8.098;2022-11-28T18:51:36;16.92;;;9.25;;
9789;SDS011;4934;50.852;8.098;2022-11-28T18:54:03;16.20;;;8.60;;
9789;SDS011;4934;50.852;8.098;2022-11-28T18:56:30;22.52;;;9.63;;
9789;SDS011;4934;50.852;8.098;2022-11-28T18:58:56;29.23;;;11.63;;
9789;SDS011;4934;50.852;8.098;2022-11-28T19:01:23;40.45;;;14.60;;
9789;SDS011;4934;50.852;8.098;2022-11-28T19:03:53;37.72;;;15.07;;
9789;SDS011;4934;50.852;8.098;2022-11-28T19:09:15;40.40;;;14.98;;
9789;SDS011;4934;50.852;8.098;2022-11-28T19:11:43;30.48;;;12.73;;